CPX779 Details

Departure: Chinggis Khaan International Airport (ZMUB)
Arrival: Incheon International Airport (RKSI)
Route: SND A575 PIDOX V1 PAMDA A326 DONVO G597 GONAV GONAV2M


Current Weather Information
ZMUB 212230Z VRB01MPS 9999 SCT100 05/M03 Q1007 NOSIG RMK QFE648.7 53 MOP
RKSI 212200Z 15007KT CAVOK 14/10 Q1006 NOSIG